sensor_id;sensor_type;location;lat;lon;timestamp;pressure;altitude;pressure_sealevel;temperature;humidity
11444;BME280;5778;47.856;12.154;2023-04-29T00:01:34;96039.50;;;11.65;100.00
11444;BME280;5778;47.856;12.154;2023-04-29T00:04:18;96034.19;;;11.65;100.00
11444;BME280;5778;47.856;12.154;2023-04-29T00:06:45;96037.66;;;11.80;100.00
11444;BME280;5778;47.856;12.154;2023-04-29T00:09:12;96038.44;;;11.76;100.00
11444;BME280;5778;47.856;12.154;2023-04-29T00:11:39;96042.72;;;11.72;100.00
11444;BME280;5778;47.856;12.154;2023-04-29T00:14:13;96043.53;;;11.77;100.00
11444;BME280;5778;47.856;12.154;2023-04-29T00:16:40;96040.06;;;11.72;100.00
11444;BME280;5778;47.856;12.154;2023-04-29T00:19:07;96033.91;;;11.66;100.00
11444;BME280;5778;47.856;12.154;2023-04-29T00:21:34;96035.00;;;11.65;100.00
11444;BME280;5778;47.856;12.154;2023-04-29T00:24:26;96037.91;;;11.69;100.00
11444;BME280;5778;47.856;12.154;2023-04-29T00:26:53;96042.72;;;11.67;100.00
11444;BME280;5778;47.856;12.154;2023-04-29T00:29:21;96030.47;;;11.81;100.00
11444;BME280;5778;47.856;12.154;2023-04-29T00:31:48;96041.41;;;11.74;100.00
11444;BME280;5778;47.856;12.154;2023-04-29T00:34:15;96041.66;;;11.73;100.00
11444;BME280;5778;47.856;12.154;2023-04-29T00:36:42;96047.78;;;11.68;100.00
11444;BME280;5778;47.856;12.154;2023-04-29T00:39:09;96042.44;;;11.73;100.00
11444;BME280;5778;47.856;12.154;2023-04-29T00:41:38;96045.91;;;11.69;100.00
11444;BME280;5778;47.856;12.154;2023-04-29T00:44:10;96045.38;;;11.62;100.00
11444;BME280;5778;47.856;12.154;2023-04-29T00:46:39;96040.31;;;11.65;100.00
11444;BME280;5778;47.856;12.154;2023-04-29T00:49:06;96044.56;;;11.61;100.00
11444;BME280;5778;47.856;12.154;2023-04-29T00:51:35;96034.97;;;11.60;100.00
11444;BME280;5778;47.856;12.154;2023-04-29T00:54:25;96036.28;;;11.58;100.00
11444;BME280;5778;47.856;12.154;2023-04-29T00:56:53;96036.53;;;11.56;100.00
11444;BME280;5778;47.856;12.154;2023-04-29T00:59:21;96032.00;;;11.52;100.00
11444;BME280;5778;47.856;12.154;2023-04-29T01:01:50;96032.00;;;11.52;100.00
11444;BME280;5778;47.856;12.154;2023-04-29T01:04:24;96025.63;;;11.48;100.00
11444;BME280;5778;47.856;12.154;2023-04-29T01:06:57;96034.16;;;11.50;100.00
11444;BME280;5778;47.856;12.154;2023-04-29T01:09:47;96032.00;;;11.47;100.00
11444;BME280;5778;47.856;12.154;2023-04-29T01:12:20;96026.16;;;11.40;100.00
11444;BME280;5778;47.856;12.154;2023-04-29T01:15:16;96037.03;;;11.33;100.00
11444;BME280;5778;47.856;12.154;2023-04-29T01:17:49;96025.59;;;11.33;100.00
11444;BME280;5778;47.856;12.154;2023-04-29T01:20:18;96034.09;;;11.30;100.00
11444;BME280;5778;47.856;12.154;2023-04-29T01:22:47;96027.72;;;11.31;100.00
11444;BME280;5778;47.856;12.154;2023-04-29T01:25:38;96023.47;;;11.30;100.00
11444;BME280;5778;47.856;12.154;2023-04-29T01:28:19;96023.72;;;11.33;100.00
11444;BME280;5778;47.856;12.154;2023-04-29T01:30:53;96026.13;;;11.35;100.00
11444;BME280;5778;47.856;12.154;2023-04-29T01:33:40;96033.84;;;11.31;100.00
11444;BME280;5778;47.856;12.154;2023-04-29T01:36:15;96043.19;;;11.39;100.00
11444;BME280;5778;47.856;12.154;2023-04-29T01:38:52;96029.06;;;11.38;100.00
11444;BME280;5778;47.856;12.154;2023-04-29T01:41:30;96036.78;;;11.30;100.00
11444;BME280;5778;47.856;12.154;2023-04-29T01:44:29;96044.50;;;11.31;100.00
11444;BME280;5778;47.856;12.154;2023-04-29T01:46:57;96041.31;;;11.39;100.00
11444;BME280;5778;47.856;12.154;2023-04-29T01:49:34;96040.78;;;11.42;100.00
11444;BME280;5778;47.856;12.154;2023-04-29T01:52:01;96041.31;;;11.44;100.00
11444;BME280;5778;47.856;12.154;2023-04-29T01:54:31;96030.16;;;11.42;100.00
11444;BME280;5778;47.856;12.154;2023-04-29T01:57:02;96040.78;;;11.42;100.00
11444;BME280;5778;47.856;12.154;2023-04-29T01:59:41;96030.91;;;11.38;100.00
11444;BME280;5778;47.856;12.154;2023-04-29T02:02:23;96029.56;;;11.35;100.00
11444;BME280;5778;47.856;12.154;2023-04-29T02:04:58;96024.25;;;11.35;100.00
11444;BME280;5778;47.856;12.154;2023-04-29T02:07:25;96022.66;;;11.34;100.00
11444;BME280;5778;47.856;12.154;2023-04-29T02:09:54;96022.16;;;11.37;100.00
11444;BME280;5778;47.856;12.154;2023-04-29T02:12:23;96025.06;;;11.41;100.00
11444;BME280;5778;47.856;12.154;2023-04-29T02:18:14;96017.63;;;11.43;100.00
11444;BME280;5778;47.856;12.154;2023-04-29T02:20:42;96020.28;;;11.43;100.00
11444;BME280;5778;47.856;12.154;2023-04-29T02:23:08;96019.75;;;11.41;100.00
11444;BME280;5778;47.856;12.154;2023-04-29T02:25:36;96026.44;;;11.48;100.00
11444;BME280;5778;47.856;12.154;2023-04-29T02:28:04;96026.44;;;11.48;100.00
11444;BME280;5778;47.856;12.154;2023-04-29T02:30:31;96024.28;;;11.45;100.00
11444;BME280;5778;47.856;12.154;2023-04-29T02:32:58;96024.53;;;11.49;100.00
11444;BME280;5778;47.856;12.154;2023-04-29T02:35:25;96028.28;;;11.48;100.00
11444;BME280;5778;47.856;12.154;2023-04-29T02:37:53;96028.00;;;11.44;100.00
11444;BME280;5778;47.856;12.154;2023-04-29T02:40:20;96018.94;;;11.45;100.00
11444;BME280;5778;47.856;12.154;2023-04-29T02:42:46;96032.81;;;11.47;100.00
11444;BME280;5778;47.856;12.154;2023-04-29T02:48:21;96025.63;;;11.48;100.00
11444;BME280;5778;47.856;12.154;2023-04-29T02:50:48;96033.59;;;11.53;100.00
11444;BME280;5778;47.856;12.154;2023-04-29T02:53:28;96030.44;;;11.56;100.00
11444;BME280;5778;47.856;12.154;2023-04-29T02:55:55;96026.97;;;11.55;100.00
11444;BME280;5778;47.856;12.154;2023-04-29T02:58:22;96025.88;;;11.51;100.00
11444;BME280;5778;47.856;12.154;2023-04-29T03:00:49;96029.59;;;11.45;100.00
11444;BME280;5778;47.856;12.154;2023-04-29T03:03:21;96024.81;;;11.42;100.00
11444;BME280;5778;47.856;12.154;2023-04-29T03:05:49;96022.66;;;11.39;100.00
11444;BME280;5778;47.856;12.154;2023-04-29T03:08:15;96033.56;;;11.38;100.00
11444;BME280;5778;47.856;12.154;2023-04-29T03:10:43;96032.53;;;11.39;100.00
11444;BME280;5778;47.856;12.154;2023-04-29T03:13:44;96034.13;;;11.35;100.00
11444;BME280;5778;47.856;12.154;2023-04-29T03:16:12;96040.50;;;11.34;100.00
11444;BME280;5778;47.856;12.154;2023-04-29T03:18:43;96040.50;;;11.34;100.00
11444;BME280;5778;47.856;12.154;2023-04-29T03:21:10;96037.28;;;11.32;100.00
11444;BME280;5778;47.856;12.154;2023-04-29T03:23:42;96035.19;;;11.34;100.00
11444;BME280;5778;47.856;12.154;2023-04-29T03:26:13;96039.97;;;11.37;100.00
11444;BME280;5778;47.856;12.154;2023-04-29T03:28:40;96032.53;;;11.34;100.00
11444;BME280;5778;47.856;12.154;2023-04-29T03:31:07;96034.63;;;11.32;100.00
11444;BME280;5778;47.856;12.154;2023-04-29T03:33:43;96036.50;;;11.26;100.00
11444;BME280;5778;47.856;12.154;2023-04-29T03:36:10;96034.38;;;11.28;100.00
11444;BME280;5778;47.856;12.154;2023-04-29T03:38:51;96041.84;;;11.31;100.00
11444;BME280;5778;47.856;12.154;2023-04-29T03:41:18;96034.09;;;11.25;100.00
11444;BME280;5778;47.856;12.154;2023-04-29T03:47:09;96033.03;;;11.31;100.00
11444;BME280;5778;47.856;12.154;2023-04-29T03:49:37;96038.38;;;11.31;100.00
11444;BME280;5778;47.856;12.154;2023-04-29T03:52:04;96037.84;;;11.34;100.00
11444;BME280;5778;47.856;12.154;2023-04-29T03:54:38;96034.13;;;11.35;100.00
11444;BME280;5778;47.856;12.154;2023-04-29T03:57:05;96029.88;;;11.34;100.00
11444;BME280;5778;47.856;12.154;2023-04-29T03:59:32;96035.72;;;11.36;100.00
11444;BME280;5778;47.856;12.154;2023-04-29T04:02:00;96033.06;;;11.36;100.00
11444;BME280;5778;47.856;12.154;2023-04-29T04:07:33;96036.81;;;11.45;100.00
11444;BME280;5778;47.856;12.154;2023-04-29T04:10:29;96042.91;;;11.45;100.00
11444;BME280;5778;47.856;12.154;2023-04-29T04:13:15;96046.66;;;11.44;100.00
11444;BME280;5778;47.856;12.154;2023-04-29T04:15:48;96049.06;;;11.46;100.00
11444;BME280;5778;47.856;12.154;2023-04-29T04:18:15;96051.44;;;11.42;100.00
11444;BME280;5778;47.856;12.154;2023-04-29T04:20:43;96040.78;;;11.42;100.00
11444;BME280;5778;47.856;12.154;2023-04-29T04:23:28;96045.31;;;11.42;100.00
11444;BME280;5778;47.856;12.154;2023-04-29T04:25:55;96053.28;;;11.42;100.00
11444;BME280;5778;47.856;12.154;2023-04-29T04:28:45;96044.25;;;11.48;100.00
11444;BME280;5778;47.856;12.154;2023-04-29T04:31:21;96052.50;;;11.51;100.00
11444;BME280;5778;47.856;12.154;2023-04-29T04:33:52;96047.19;;;11.56;100.00
11444;BME280;5778;47.856;12.154;2023-04-29T04:36:19;96050.72;;;11.62;100.00
11444;BME280;5778;47.856;12.154;2023-04-29T04:38:48;96056.56;;;11.64;100.00
11444;BME280;5778;47.856;12.154;2023-04-29T04:41:15;96062.13;;;11.62;100.00
11444;BME280;5778;47.856;12.154;2023-04-29T04:43:45;96059.22;;;11.64;100.00
11444;BME280;5778;47.856;12.154;2023-04-29T04:46:22;96059.50;;;11.67;100.00
11444;BME280;5778;47.856;12.154;2023-04-29T04:49:18;96064.03;;;11.67;100.00
11444;BME280;5778;47.856;12.154;2023-04-29T04:51:49;96065.88;;;11.61;100.00
11444;BME280;5778;47.856;12.154;2023-04-29T04:57:27;96066.16;;;11.75;100.00
11444;BME280;5778;47.856;12.154;2023-04-29T04:59:59;96059.75;;;11.76;100.00
11444;BME280;5778;47.856;12.154;2023-04-29T05:02:26;96067.75;;;11.81;100.00
11444;BME280;5778;47.856;12.154;2023-04-29T05:04:55;96073.66;;;11.83;100.00
11444;BME280;5778;47.856;12.154;2023-04-29T05:07:25;96068.84;;;11.90;100.00
11444;BME280;5778;47.856;12.154;2023-04-29T05:09:59;96072.03;;;11.92;100.00
11444;BME280;5778;47.856;12.154;2023-04-29T05:12:28;96074.69;;;11.97;100.00
11444;BME280;5778;47.856;12.154;2023-04-29T05:15:05;96079.78;;;12.03;100.00
11444;BME280;5778;47.856;12.154;2023-04-29T05:17:33;96067.78;;;12.06;100.00
11444;BME280;5778;47.856;12.154;2023-04-29T05:20:01;96075.78;;;12.11;100.00
11444;BME280;5778;47.856;12.154;2023-04-29T05:22:29;96080.56;;;12.09;100.00
11444;BME280;5778;47.856;12.154;2023-04-29T05:28:21;96081.63;;;12.28;100.00
11444;BME280;5778;47.856;12.154;2023-04-29T05:30:49;96087.47;;;12.30;100.00
11444;BME280;5778;47.856;12.154;2023-04-29T05:36:41;96086.66;;;12.44;100.00
11444;BME280;5778;47.856;12.154;2023-04-29T05:39:08;96095.47;;;12.45;100.00
11444;BME280;5778;47.856;12.154;2023-04-29T05:41:35;96100.81;;;12.50;100.00
11444;BME280;5778;47.856;12.154;2023-04-29T05:44:14;96087.19;;;12.56;100.00
11444;BME280;5778;47.856;12.154;2023-04-29T05:46:41;96102.91;;;12.58;100.00
11444;BME280;5778;47.856;12.154;2023-04-29T05:49:08;96099.72;;;12.66;100.00
11444;BME280;5778;47.856;12.154;2023-04-29T05:51:35;96107.13;;;12.84;100.00
11444;BME280;5778;47.856;12.154;2023-04-29T05:54:22;96104.97;;;13.06;100.00
11444;BME280;5778;47.856;12.154;2023-04-29T05:56:50;96104.44;;;13.09;100.00
11444;BME280;5778;47.856;12.154;2023-04-29T05:59:19;96110.28;;;13.11;100.00
11444;BME280;5778;47.856;12.154;2023-04-29T06:01:50;96113.44;;;13.18;100.00
11444;BME280;5778;47.856;12.154;2023-04-29T06:04:17;96119.34;;;13.20;100.00
11444;BME280;5778;47.856;12.154;2023-04-29T06:07:11;96114.50;;;13.22;100.00
11444;BME280;5778;47.856;12.154;2023-04-29T06:09:56;96110.78;;;13.18;100.00
11444;BME280;5778;47.856;12.154;2023-04-29T06:12:25;96114.50;;;13.22;100.00
11444;BME280;5778;47.856;12.154;2023-04-29T06:18:17;96119.38;;;13.68;100.00
11444;BME280;5778;47.856;12.154;2023-04-29T06:20:43;96114.53;;;13.75;100.00
11444;BME280;5778;47.856;12.154;2023-04-29T06:23:18;96110.41;;;13.93;100.00
11444;BME280;5778;47.856;12.154;2023-04-29T06:25:45;96110.50;;;14.16;100.00
11444;BME280;5778;47.856;12.154;2023-04-29T06:28:12;96110.69;;;14.30;100.00
11444;BME280;5778;47.856;12.154;2023-04-29T06:30:39;96105.50;;;14.43;100.00
11444;BME280;5778;47.856;12.154;2023-04-29T06:33:10;96099.66;;;14.65;100.00
11444;BME280;5778;47.856;12.154;2023-04-29T06:35:40;96102.25;;;14.75;100.00
11444;BME280;5778;47.856;12.154;2023-04-29T06:38:23;96099.97;;;15.10;100.00
11444;BME280;5778;47.856;12.154;2023-04-29T06:41:00;96103.53;;;15.29;100.00
11444;BME280;5778;47.856;12.154;2023-04-29T06:43:47;96103.91;;;15.18;100.00
11444;BME280;5778;47.856;12.154;2023-04-29T06:46:36;96105.06;;;15.12;100.00
11444;BME280;5778;47.856;12.154;2023-04-29T06:49:13;96100.69;;;15.21;100.00
11444;BME280;5778;47.856;12.154;2023-04-29T06:51:42;96097.41;;;15.24;100.00
11444;BME280;5778;47.856;12.154;2023-04-29T06:54:11;96101.34;;;15.55;100.00
11444;BME280;5778;47.856;12.154;2023-04-29T06:56:37;96100.53;;;15.54;100.00
11444;BME280;5778;47.856;12.154;2023-04-29T06:59:04;96101.06;;;15.56;100.00
11444;BME280;5778;47.856;12.154;2023-04-29T07:01:33;96103.13;;;15.41;100.00
11444;BME280;5778;47.856;12.154;2023-04-29T07:04:10;96106.91;;;15.40;100.00
11444;BME280;5778;47.856;12.154;2023-04-29T07:06:38;96119.72;;;15.19;100.00
11444;BME280;5778;47.856;12.154;2023-04-29T07:09:06;96120.06;;;14.61;100.00
11444;BME280;5778;47.856;12.154;2023-04-29T07:11:35;96129.69;;;14.62;100.00
11444;BME280;5778;47.856;12.154;2023-04-29T07:14:25;96140.88;;;14.35;100.00
11444;BME280;5778;47.856;12.154;2023-04-29T07:16:52;96146.22;;;14.35;100.00
11444;BME280;5778;47.856;12.154;2023-04-29T07:19:20;96146.16;;;14.40;100.00
11444;BME280;5778;47.856;12.154;2023-04-29T07:21:47;96149.66;;;14.41;100.00
11444;BME280;5778;47.856;12.154;2023-04-29T07:24:28;96141.03;;;14.49;100.00
11444;BME280;5778;47.856;12.154;2023-04-29T07:26:55;96147.66;;;14.23;100.00
11444;BME280;5778;47.856;12.154;2023-04-29T07:29:22;96152.28;;;14.02;100.00
11444;BME280;5778;47.856;12.154;2023-04-29T07:31:49;96154.53;;;13.85;100.00
11444;BME280;5778;47.856;12.154;2023-04-29T07:34:16;96155.56;;;13.94;100.00
11444;BME280;5778;47.856;12.154;2023-04-29T07:36:43;96159.09;;;13.90;100.00
11444;BME280;5778;47.856;12.154;2023-04-29T07:39:10;96157.72;;;13.92;100.00
11444;BME280;5778;47.856;12.154;2023-04-29T07:41:46;96163.72;;;14.23;100.00
11444;BME280;5778;47.856;12.154;2023-04-29T07:44:19;96158.88;;;14.58;100.00
11444;BME280;5778;47.856;12.154;2023-04-29T07:46:47;96162.16;;;14.79;100.00
11444;BME280;5778;47.856;12.154;2023-04-29T07:49:14;96154.13;;;14.79;100.00
11444;BME280;5778;47.856;12.154;2023-04-29T07:51:42;96151.00;;;14.72;100.00
11444;BME280;5778;47.856;12.154;2023-04-29T07:54:09;96148.69;;;15.17;100.00
11444;BME280;5778;47.856;12.154;2023-04-29T07:56:36;96150.47;;;14.98;100.00
11444;BME280;5778;47.856;12.154;2023-04-29T07:59:04;96156.00;;;15.07;100.00
11444;BME280;5778;47.856;12.154;2023-04-29T08:01:31;96151.06;;;14.95;100.00
11444;BME280;5778;47.856;12.154;2023-04-29T08:04:31;96152.38;;;14.98;100.00
11444;BME280;5778;47.856;12.154;2023-04-29T08:07:06;96153.53;;;15.39;100.00
11444;BME280;5778;47.856;12.154;2023-04-29T08:09:35;96146.78;;;15.65;100.00
11444;BME280;5778;47.856;12.154;2023-04-29T08:12:03;96142.16;;;16.07;100.00
11444;BME280;5778;47.856;12.154;2023-04-29T08:15:06;96154.50;;;16.08;100.00
11444;BME280;5778;47.856;12.154;2023-04-29T08:17:33;96150.34;;;16.34;100.00
11444;BME280;5778;47.856;12.154;2023-04-29T08:20:00;96156.88;;;16.10;100.00
11444;BME280;5778;47.856;12.154;2023-04-29T08:22:27;96150.81;;;16.41;100.00
11444;BME280;5778;47.856;12.154;2023-04-29T08:24:53;96150.84;;;16.55;100.00
11444;BME280;5778;47.856;12.154;2023-04-29T08:27:20;96150.06;;;16.36;100.00
11444;BME280;5778;47.856;12.154;2023-04-29T08:29:47;96142.53;;;16.19;100.00
11444;BME280;5778;47.856;12.154;2023-04-29T08:32:16;96148.63;;;16.43;100.00
11444;BME280;5778;47.856;12.154;2023-04-29T08:34:45;96148.97;;;16.55;100.00
11444;BME280;5778;47.856;12.154;2023-04-29T08:37:12;96152.03;;;16.81;100.00
11444;BME280;5778;47.856;12.154;2023-04-29T08:39:39;96148.88;;;16.92;100.00
11444;BME280;5778;47.856;12.154;2023-04-29T08:42:08;96159.16;;;16.72;100.00
11444;BME280;5778;47.856;12.154;2023-04-29T08:45:02;96153.22;;;16.75;100.00
11444;BME280;5778;47.856;12.154;2023-04-29T08:47:31;96154.47;;;17.09;100.00
11444;BME280;5778;47.856;12.154;2023-04-29T08:50:01;96151.13;;;17.44;100.00
11444;BME280;5778;47.856;12.154;2023-04-29T08:52:29;96155.94;;;17.61;100.00
11444;BME280;5778;47.856;12.154;2023-04-29T08:55:23;96142.94;;;18.25;100.00
11444;BME280;5778;47.856;12.154;2023-04-29T08:57:54;96153.88;;;17.93;100.00
11444;BME280;5778;47.856;12.154;2023-04-29T09:00:21;96145.16;;;18.23;100.00
11444;BME280;5778;47.856;12.154;2023-04-29T09:02:53;96151.41;;;18.32;100.00
11444;BME280;5778;47.856;12.154;2023-04-29T09:05:23;96136.56;;;18.57;100.00
11444;BME280;5778;47.856;12.154;2023-04-29T09:07:51;96141.81;;;18.40;100.00
11444;BME280;5778;47.856;12.154;2023-04-29T09:10:19;96134.56;;;18.27;100.00
11444;BME280;5778;47.856;12.154;2023-04-29T09:12:46;96133.75;;;18.26;100.00
11444;BME280;5778;47.856;12.154;2023-04-29T09:15:35;96135.53;;;18.09;100.00
11444;BME280;5778;47.856;12.154;2023-04-29T09:18:03;96128.69;;;17.89;100.00
11444;BME280;5778;47.856;12.154;2023-04-29T09:20:30;96132.56;;;17.83;100.00
11444;BME280;5778;47.856;12.154;2023-04-29T09:22:59;96120.84;;;18.15;100.00
11444;BME280;5778;47.856;12.154;2023-04-29T09:25:28;96122.31;;;18.21;100.00
11444;BME280;5778;47.856;12.154;2023-04-29T09:27:56;96131.09;;;18.13;100.00
11444;BME280;5778;47.856;12.154;2023-04-29T09:30:23;96121.38;;;18.03;100.00
11444;BME280;5778;47.856;12.154;2023-04-29T09:33:26;96113.66;;;18.68;100.00
11444;BME280;5778;47.856;12.154;2023-04-29T09:35:55;96116.06;;;18.47;100.00
11444;BME280;5778;47.856;12.154;2023-04-29T09:38:22;96118.44;;;18.49;100.00
11444;BME280;5778;47.856;12.154;2023-04-29T09:40:50;96115.41;;;18.42;100.00
11444;BME280;5778;47.856;12.154;2023-04-29T09:43:18;96115.28;;;18.47;100.00
11444;BME280;5778;47.856;12.154;2023-04-29T09:45:47;96118.56;;;18.44;100.00
11444;BME280;5778;47.856;12.154;2023-04-29T09:48:14;96116.72;;;18.31;100.00
11444;BME280;5778;47.856;12.154;2023-04-29T09:50:43;96113.72;;;18.32;100.00
11444;BME280;5778;47.856;12.154;2023-04-29T09:54:00;96107.75;;;18.22;100.00
11444;BME280;5778;47.856;12.154;2023-04-29T09:56:27;96108.34;;;18.19;100.00
11444;BME280;5778;47.856;12.154;2023-04-29T09:58:55;96104.28;;;17.86;100.00
11444;BME280;5778;47.856;12.154;2023-04-29T10:01:25;96111.69;;;17.80;100.00
11444;BME280;5778;47.856;12.154;2023-04-29T10:03:54;96113.13;;;18.00;100.00
11444;BME280;5778;47.856;12.154;2023-04-29T10:06:24;96108.28;;;18.10;100.00
11444;BME280;5778;47.856;12.154;2023-04-29T10:08:51;96104.66;;;17.57;100.00
11444;BME280;5778;47.856;12.154;2023-04-29T10:11:18;96107.34;;;17.57;100.00
11444;BME280;5778;47.856;12.154;2023-04-29T10:14:12;96114.69;;;17.52;100.00
11444;BME280;5778;47.856;12.154;2023-04-29T10:16:44;96121.16;;;17.24;100.00
11444;BME280;5778;47.856;12.154;2023-04-29T10:19:14;96126.97;;;16.99;100.00
11444;BME280;5778;47.856;12.154;2023-04-29T10:21:47;96123.25;;;17.13;100.00
11444;BME280;5778;47.856;12.154;2023-04-29T10:24:42;96116.38;;;17.48;100.00
11444;BME280;5778;47.856;12.154;2023-04-29T10:27:12;96116.22;;;17.93;100.00
11444;BME280;5778;47.856;12.154;2023-04-29T10:29:42;96106.69;;;18.45;100.00
11444;BME280;5778;47.856;12.154;2023-04-29T10:32:09;96103.06;;;18.93;100.00
11444;BME280;5778;47.856;12.154;2023-04-29T10:34:51;96100.25;;;19.07;100.00
11444;BME280;5778;47.856;12.154;2023-04-29T10:37:21;96100.25;;;19.07;100.00
11444;BME280;5778;47.856;12.154;2023-04-29T10:39:55;96098.44;;;18.94;100.00
11444;BME280;5778;47.856;12.154;2023-04-29T10:42:32;96093.31;;;18.84;100.00
11444;BME280;5778;47.856;12.154;2023-04-29T10:45:25;96091.81;;;18.69;100.00
11444;BME280;5778;47.856;12.154;2023-04-29T10:48:10;96076.03;;;18.76;100.00
11444;BME280;5778;47.856;12.154;2023-04-29T10:51:02;96084.53;;;18.70;100.00
11444;BME280;5778;47.856;12.154;2023-04-29T10:54:07;96142.41;;;17.52;100.00
11444;BME280;5778;47.856;12.154;2023-04-29T10:56:47;96181.53;;;16.12;100.00
11444;BME280;5778;47.856;12.154;2023-04-29T10:59:15;96094.19;;;15.03;100.00
11444;BME280;5778;47.856;12.154;2023-04-29T11:01:44;96102.28;;;15.22;100.00
11444;BME280;5778;47.856;12.154;2023-04-29T11:07:26;96099.53;;;15.27;100.00
11444;BME280;5778;47.856;12.154;2023-04-29T11:09:57;96093.59;;;15.53;100.00
11444;BME280;5778;47.856;12.154;2023-04-29T11:12:23;96095.19;;;15.91;100.00
11444;BME280;5778;47.856;12.154;2023-04-29T11:14:57;96094.34;;;16.28;100.00
11444;BME280;5778;47.856;12.154;2023-04-29T11:17:34;96099.16;;;16.49;100.00
11444;BME280;5778;47.856;12.154;2023-04-29T11:20:02;96109.84;;;16.68;100.00
11444;BME280;5778;47.856;12.154;2023-04-29T11:22:30;96105.72;;;17.02;100.00
11444;BME280;5778;47.856;12.154;2023-04-29T11:25:18;96113.44;;;16.90;100.00
11444;BME280;5778;47.856;12.154;2023-04-29T11:27:46;96114.81;;;16.74;100.00
11444;BME280;5778;47.856;12.154;2023-04-29T11:30:14;96112.69;;;17.17;100.00
11444;BME280;5778;47.856;12.154;2023-04-29T11:32:41;96106.91;;;17.37;100.00
11444;BME280;5778;47.856;12.154;2023-04-29T11:35:18;96108.53;;;17.38;100.00
11444;BME280;5778;47.856;12.154;2023-04-29T11:37:45;96105.22;;;17.68;100.00
11444;BME280;5778;47.856;12.154;2023-04-29T11:40:13;96095.72;;;18.19;100.00
11444;BME280;5778;47.856;12.154;2023-04-29T11:42:44;96090.50;;;18.23;100.00
11444;BME280;5778;47.856;12.154;2023-04-29T11:45:34;96083.81;;;18.34;100.00
11444;BME280;5778;47.856;12.154;2023-04-29T11:48:01;96085.88;;;18.15;100.00
11444;BME280;5778;47.856;12.154;2023-04-29T11:50:31;96088.16;;;18.08;100.00
11444;BME280;5778;47.856;12.154;2023-04-29T11:53:10;96081.28;;;17.80;100.00
11444;BME280;5778;47.856;12.154;2023-04-29T11:55:37;96088.06;;;17.77;100.00
11444;BME280;5778;47.856;12.154;2023-04-29T11:58:06;96095.28;;;17.55;100.00
11444;BME280;5778;47.856;12.154;2023-04-29T12:00:33;96094.34;;;17.73;100.00
11444;BME280;5778;47.856;12.154;2023-04-29T12:03:01;96098.31;;;17.89;100.00
11444;BME280;5778;47.856;12.154;2023-04-29T12:05:28;96103.31;;;18.17;100.00
11444;BME280;5778;47.856;12.154;2023-04-29T12:07:55;96093.06;;;18.06;100.00
11444;BME280;5778;47.856;12.154;2023-04-29T12:10:21;96100.25;;;17.97;100.00
11444;BME280;5778;47.856;12.154;2023-04-29T12:12:49;96102.59;;;18.12;100.00
11444;BME280;5778;47.856;12.154;2023-04-29T12:18:38;96093.44;;;18.79;100.00
11444;BME280;5778;47.856;12.154;2023-04-29T12:21:05;96089.63;;;19.02;100.00
11444;BME280;5778;47.856;12.154;2023-04-29T12:23:44;96088.88;;;19.18;100.00
11444;BME280;5778;47.856;12.154;2023-04-29T12:26:11;96089.00;;;19.44;100.00
11444;BME280;5778;47.856;12.154;2023-04-29T12:28:39;96085.53;;;19.52;100.00
11444;BME280;5778;47.856;12.154;2023-04-29T12:31:08;96092.22;;;19.54;100.00
11444;BME280;5778;47.856;12.154;2023-04-29T12:33:35;96082.97;;;19.47;100.00
11444;BME280;5778;47.856;12.154;2023-04-29T12:36:15;96084.16;;;19.71;100.00
11444;BME280;5778;47.856;12.154;2023-04-29T12:38:42;96084.97;;;19.97;100.00
11444;BME280;5778;47.856;12.154;2023-04-29T12:41:11;96081.66;;;20.17;100.00
11444;BME280;5778;47.856;12.154;2023-04-29T12:43:42;96078.94;;;20.60;100.00
11444;BME280;5778;47.856;12.154;2023-04-29T12:46:09;96079.09;;;20.55;100.00
11444;BME280;5778;47.856;12.154;2023-04-29T12:48:39;96066.56;;;20.59;100.00
11444;BME280;5778;47.856;12.154;2023-04-29T12:51:09;96066.38;;;20.55;100.00
11444;BME280;5778;47.856;12.154;2023-04-29T12:53:38;96081.13;;;19.64;100.00
11444;BME280;5778;47.856;12.154;2023-04-29T12:56:06;96085.53;;;18.52;100.00
11444;BME280;5778;47.856;12.154;2023-04-29T12:58:33;96083.22;;;18.37;100.00
11444;BME280;5778;47.856;12.154;2023-04-29T13:01:00;96090.25;;;18.11;100.00
11444;BME280;5778;47.856;12.154;2023-04-29T13:03:35;96088.94;;;17.86;100.00
11444;BME280;5778;47.856;12.154;2023-04-29T13:06:02;96092.69;;;18.34;100.00
11444;BME280;5778;47.856;12.154;2023-04-29T13:08:30;96086.91;;;19.32;100.00
11444;BME280;5778;47.856;12.154;2023-04-29T13:10:57;96083.84;;;19.73;100.00
11444;BME280;5778;47.856;12.154;2023-04-29T13:13:47;96081.81;;;19.31;100.00
11444;BME280;5778;47.856;12.154;2023-04-29T13:16:14;96082.13;;;20.02;100.00
11444;BME280;5778;47.856;12.154;2023-04-29T13:18:41;96076.09;;;20.39;100.00
11444;BME280;5778;47.856;12.154;2023-04-29T13:21:08;96072.59;;;20.47;100.00
11444;BME280;5778;47.856;12.154;2023-04-29T13:26:54;96075.84;;;19.51;100.00
11444;BME280;5778;47.856;12.154;2023-04-29T13:29:20;96065.06;;;19.51;100.00
11444;BME280;5778;47.856;12.154;2023-04-29T13:31:48;96063.03;;;19.73;100.00
11444;BME280;5778;47.856;12.154;2023-04-29T13:37:36;96071.63;;;19.92;100.00
11444;BME280;5778;47.856;12.154;2023-04-29T13:40:04;96069.41;;;20.03;100.00
11444;BME280;5778;47.856;12.154;2023-04-29T13:42:33;96072.00;;;19.35;100.00
11444;BME280;5778;47.856;12.154;2023-04-29T13:45:02;96063.44;;;19.02;100.00
11444;BME280;5778;47.856;12.154;2023-04-29T13:47:29;96063.50;;;19.19;100.00
11444;BME280;5778;47.856;12.154;2023-04-29T13:49:56;96080.63;;;19.15;100.00
11444;BME280;5778;47.856;12.154;2023-04-29T13:52:23;96078.78;;;18.93;100.00
11444;BME280;5778;47.856;12.154;2023-04-29T13:54:52;96080.25;;;18.99;100.00